createdAt,value
2022-08-26T00:08:50.040Z,0.52
2022-08-26T00:23:50.187Z,1.61
2022-08-26T00:38:50.170Z,1.69
2022-08-26T00:53:50.025Z,1.56
2022-08-26T01:08:50.194Z,1.27
2022-08-26T01:23:50.090Z,2.42
2022-08-26T01:38:50.093Z,1.48
2022-08-26T01:53:50.175Z,1.20
2022-08-26T02:08:50.050Z,1.71
2022-08-26T02:23:50.257Z,1.80
2022-08-26T02:38:50.197Z,1.72
2022-08-26T02:53:50.210Z,1.80
2022-08-26T03:08:50.359Z,1.68
2022-08-26T03:23:50.192Z,2.14
2022-08-26T03:38:50.229Z,1.81
2022-08-26T03:53:50.173Z,1.83
2022-08-26T04:08:50.366Z,2.47
2022-08-26T04:23:50.182Z,2.16
2022-08-26T04:38:50.342Z,2.03
2022-08-26T04:53:50.201Z,1.67
2022-08-26T05:08:50.160Z,1.11
2022-08-26T05:23:50.163Z,1.27
2022-08-26T05:38:50.186Z,1.83
2022-08-26T05:53:54.881Z,2.03
2022-08-26T06:08:50.350Z,2.43
2022-08-26T06:23:50.376Z,1.57
2022-08-26T06:38:51.751Z,2.39
2022-08-26T06:53:50.417Z,1.44
2022-08-26T07:08:50.350Z,1.45
2022-08-26T07:23:50.485Z,2.16
2022-08-26T07:38:50.452Z,2.66
2022-08-26T07:53:52.399Z,2.11
2022-08-26T08:08:51.590Z,2.22
2022-08-26T08:23:50.730Z,2.37
2022-08-26T08:38:50.719Z,2.24
2022-08-26T08:53:50.622Z,2.72
2022-08-26T09:08:50.596Z,3.19
2022-08-26T09:23:51.908Z,2.21
2022-08-26T09:38:50.315Z,1.51
2022-08-26T09:53:50.580Z,2.17
2022-08-26T10:08:50.433Z,2.00
2022-08-26T10:23:50.575Z,2.42
2022-08-26T10:38:50.599Z,2.25
2022-08-26T10:53:51.403Z,2.44
2022-08-26T11:08:50.548Z,2.38
2022-08-26T11:23:50.716Z,2.73
2022-08-26T11:38:50.409Z,2.07
2022-08-26T11:53:50.448Z,3.35
2022-08-26T12:08:50.723Z,2.76
2022-08-26T12:23:50.473Z,2.47
2022-08-26T12:38:50.660Z,2.66
2022-08-26T12:53:50.621Z,2.78
2022-08-26T13:08:50.523Z,2.72
2022-08-26T13:23:50.511Z,1.91
2022-08-26T13:38:51.976Z,2.34
2022-08-26T13:53:50.647Z,2.84
2022-08-26T14:08:50.582Z,2.69
2022-08-26T14:23:50.463Z,2.39
2022-08-26T14:38:50.696Z,3.32
2022-08-26T14:53:50.730Z,2.69
2022-08-26T15:08:50.854Z,3.43
2022-08-26T15:23:50.846Z,3.42
2022-08-26T15:38:50.736Z,3.12
2022-08-26T15:53:50.726Z,2.36
2022-08-26T16:08:50.573Z,2.55
2022-08-26T16:23:50.719Z,3.11
2022-08-26T16:38:50.593Z,2.73
2022-08-26T16:53:50.745Z,2.88
2022-08-26T17:08:51.677Z,2.63
2022-08-26T17:23:50.676Z,2.47
2022-08-26T17:38:50.825Z,1.97
2022-08-26T17:53:50.667Z,2.07
2022-08-26T18:08:50.745Z,2.13
2022-08-26T18:23:50.885Z,2.00
2022-08-26T18:38:50.816Z,1.90
2022-08-26T18:53:50.870Z,2.38
2022-08-26T19:08:50.879Z,2.21
2022-08-26T19:23:50.683Z,2.51
2022-08-26T19:38:50.927Z,3.00
2022-08-26T19:53:50.850Z,2.65
2022-08-26T20:08:52.040Z,2.97
2022-08-26T20:23:50.874Z,2.47
2022-08-26T20:38:50.810Z,2.59
2022-08-26T20:53:50.781Z,2.16
2022-08-26T21:08:50.773Z,2.14
2022-08-26T21:23:50.894Z,2.19
2022-08-26T21:38:50.734Z,2.29
2022-08-26T21:53:50.824Z,2.43
2022-08-26T22:08:50.778Z,1.76
2022-08-26T22:23:50.842Z,2.04
2022-08-26T22:38:50.799Z,2.42
2022-08-26T22:53:50.898Z,1.94
2022-08-26T23:08:50.912Z,2.09
2022-08-26T23:23:50.963Z,2.48
2022-08-26T23:38:53.153Z,2.04
2022-08-26T23:53:50.702Z,1.78
